Terminal Aerodrome Forecast
Issued by NWS Shreveport, LA

Home | Current Version | Previous Version | Text Only | Print | Product List | Glossary On
Versions: 1 2 3 4 5 6 7 8 9 10 11 12 13 14 15 16 17 18 19 20 21 22 23
000
FTUS44 KSHV 291518 AAB
TAFTXK
TAF AMD
KTXK 291518Z 2915/3012 21008KT P6SM BKN015 BKN025
     FM291700 22007KT P6SM SCT035 BKN250
     FM291900 25008KT P6SM VCTS SCT045CB SCT120 SCT250
     FM300000 20006KT P6SM BKN050 BKN250
     FM300600 21006KT P6SM BKN070=

USA.gov is the U.S. government's official web portal to all federal, state and local government web resources and services.